Time;durP1;ratioP1;P1;durP2;ratioP2;P2;SDS_P1;SDS_P2;PMS_P1;PMS_P2;Temp;Humidity;BMP_temperature;BMP_pressure;BME280_temperature;BME280_humidity;BME280_pressure;Samples;Min_cycle;Max_cycle;Signal;HPM_P1;HPM_P2
2022/01/05 00:01:34;;;;;;;2.10;0.73;;;11.90;67.80;;;;;;20565462;28;20038;-78
2022/01/05 00:11:35;;;;;;;1.38;0.68;;;11.90;67.70;;;;;;20564586;28;20417;-76
2022/01/05 00:21:35;;;;;;;1.33;0.82;;;11.90;67.70;;;;;;20531931;28;20030;-77
2022/01/05 00:31:36;;;;;;;2.55;0.82;;;11.90;67.70;;;;;;20562928;28;20047;-78
2022/01/05 00:41:37;;;;;;;1.27;0.63;;;11.90;67.70;;;;;;20546347;28;20105;-78
2022/01/05 00:51:38;;;;;;;0.90;0.57;;;11.90;67.70;;;;;;20562205;28;20549;-78
2022/01/05 01:01:38;;;;;;;2.05;0.77;;;11.90;67.60;;;;;;20544497;28;20094;-77
2022/01/05 01:11:39;;;;;;;1.13;0.60;;;11.90;67.60;;;;;;20544115;28;20049;-76
2022/01/05 01:21:40;;;;;;;2.65;0.60;;;11.90;67.50;;;;;;20560560;28;20031;-79
2022/01/05 01:31:40;;;;;;;2.27;0.73;;;11.90;67.50;;;;;;20558933;28;20117;-77
2022/01/05 01:41:41;;;;;;;4.75;0.82;;;11.90;67.50;;;;;;20573592;28;20378;-77
2022/01/05 01:51:41;;;;;;;1.73;0.63;;;11.90;67.50;;;;;;20556978;28;20042;-78
2022/01/05 02:01:42;;;;;;;1.57;0.90;;;11.80;67.50;;;;;;20555945;28;20417;-77
2022/01/05 02:11:43;;;;;;;2.20;0.60;;;11.80;67.40;;;;;;20539487;28;20787;-77
2022/01/05 02:21:43;;;;;;;1.08;0.38;;;11.80;67.30;;;;;;20538662;28;20041;-78
2022/01/05 02:31:44;;;;;;;1.20;0.90;;;11.80;67.30;;;;;;20554548;28;20070;-77
2022/01/05 02:41:44;;;;;;;1.33;0.50;;;11.80;67.20;;;;;;20553291;28;20038;-77
2022/01/05 02:51:45;;;;;;;1.23;0.50;;;11.70;67.10;;;;;;20552235;28;20065;-77
2022/01/05 03:01:46;;;;;;;1.83;0.50;;;11.80;67.10;;;;;;20552372;28;20027;-76
2022/01/05 03:11:47;;;;;;;3.33;0.70;;;11.80;67.00;;;;;;20535887;28;20772;-78
2022/01/05 03:21:47;;;;;;;2.78;0.60;;;11.80;66.90;;;;;;20534816;28;20041;-77
2022/01/05 03:31:48;;;;;;;2.05;0.82;;;11.80;66.80;;;;;;20534797;28;20043;-77
2022/01/05 03:41:49;;;;;;;1.60;0.82;;;11.70;66.70;;;;;;20550031;28;20054;-77
2022/01/05 03:51:50;;;;;;;2.70;1.13;;;11.70;66.60;;;;;;20533577;28;20035;-77
2022/01/05 04:01:50;;;;;;;2.55;1.75;;;11.70;66.50;;;;;;20565120;28;20325;-77
2022/01/05 04:11:51;;;;;;;2.58;0.57;;;11.70;66.40;;;;;;20532800;28;20034;-77
2022/01/05 04:21:52;;;;;;;5.40;0.47;;;11.70;66.30;;;;;;20548404;28;20126;-77
2022/01/05 04:31:52;;;;;;;4.03;0.70;;;11.70;66.30;;;;;;20552113;28;20046;-77
2022/01/05 04:41:53;;;;;;;2.25;0.65;;;11.70;66.20;;;;;;20578275;28;20084;-78
2022/01/05 04:51:53;;;;;;;3.30;0.68;;;11.70;66.00;;;;;;20545625;28;20034;-77
2022/01/05 05:01:54;;;;;;;2.63;0.77;;;11.70;65.90;;;;;;20544746;28;20034;-77
2022/01/05 05:11:55;;;;;;;1.42;0.40;;;11.70;65.80;;;;;;20576257;28;20035;-77
2022/01/05 05:21:56;;;;;;;2.67;0.82;;;12.00;65.10;;;;;;20543464;28;20069;-77
2022/01/05 05:31:56;;;;;;;2.00;0.85;;;12.70;63.10;;;;;;20558891;28;20049;-77
2022/01/05 05:41:57;;;;;;;3.40;0.60;;;13.50;60.70;;;;;;20541537;28;20039;-78
2022/01/05 05:51:57;;;;;;;3.33;0.90;;;14.20;58.50;;;;;;20541762;28;20038;-77
2022/01/05 06:01:58;;;;;;;2.50;0.97;;;14.70;56.80;;;;;;20556513;28;20030;-77
2022/01/05 06:11:58;;;;;;;2.50;0.60;;;14.80;55.90;;;;;;20539407;28;20381;-77
2022/01/05 06:21:59;;;;;;;3.53;0.90;;;14.70;55.50;;;;;;20571942;28;20305;-77
2022/01/05 06:32:00;;;;;;;5.63;0.70;;;14.50;55.70;;;;;;20553786;28;20106;-79
2022/01/05 06:42:00;;;;;;;1.05;0.50;;;13.90;56.50;;;;;;20554555;28;20035;-78
2022/01/05 06:52:01;;;;;;;2.28;0.70;;;13.40;57.40;;;;;;20567863;28;20035;-80
2022/01/05 07:02:03;;;;;;;2.70;0.98;;;13.00;58.30;;;;;;20647480;28;20045;-76
2022/01/05 07:12:04;;;;;;;3.47;1.10;;;12.70;59.10;;;;;;20652401;28;20041;-76
2022/01/05 07:22:05;;;;;;;2.15;0.77;;;12.50;59.80;;;;;;20693097;28;20038;-75
2022/01/05 07:32:06;;;;;;;2.08;0.75;;;12.30;60.20;;;;;;20645697;28;20050;-76
2022/01/05 07:42:07;;;;;;;2.33;1.00;;;12.10;60.60;;;;;;20646836;28;20112;-75
2022/01/05 07:52:07;;;;;;;2.72;0.68;;;12.00;60.90;;;;;;20636007;28;20149;-75
2022/01/05 08:02:08;;;;;;;3.72;0.77;;;12.00;61.10;;;;;;20662433;28;20042;-78
2022/01/05 08:12:09;;;;;;;5.63;1.00;;;12.00;61.20;;;;;;20642257;28;20137;-78
2022/01/05 08:22:10;;;;;;;1.35;0.60;;;12.00;61.30;;;;;;20680191;28;20034;-77
2022/01/05 08:32:11;;;;;;;2.45;0.65;;;12.00;61.20;;;;;;20686392;28;20069;-78
2022/01/05 08:42:12;;;;;;;3.58;1.05;;;12.00;61.20;;;;;;20648769;28;20117;-77
2022/01/05 08:52:13;;;;;;;3.15;0.60;;;12.00;61.20;;;;;;20677441;28;20113;-80
2022/01/05 09:02:15;;;;;;;3.33;1.00;;;12.00;61.20;;;;;;20722139;28;20073;-75
2022/01/05 09:12:16;;;;;;;1.67;0.75;;;12.00;61.20;;;;;;20725010;28;20121;-74
2022/01/05 09:22:16;;;;;;;5.82;1.02;;;11.90;61.30;;;;;;20657427;28;20655;-73
2022/01/05 09:32:17;;;;;;;5.00;1.30;;;11.90;61.30;;;;;;20715113;28;20050;-75
2022/01/05 09:42:17;;;;;;;2.58;1.02;;;11.90;61.30;;;;;;20657188;28;20046;-75
2022/01/05 09:52:18;;;;;;;4.90;0.85;;;11.90;61.30;;;;;;20631183;28;20038;-74
2022/01/05 10:02:19;;;;;;;3.03;1.07;;;11.90;61.30;;;;;;20635219;28;20510;-74
2022/01/05 10:12:19;;;;;;;2.47;0.70;;;11.90;61.20;;;;;;20602670;28;20344;-74
2022/01/05 10:22:27;;;;;;;5.13;1.40;;;11.90;61.10;;;;;;20600251;28;20034;-74
2022/01/05 10:32:35;;;;;;;5.93;1.55;;;11.80;60.90;;;;;;20665420;28;20092;-78
2022/01/05 10:42:37;;;;;;;3.88;1.23;;;11.80;60.80;;;;;;20694954;28;20124;-81
2022/01/05 10:52:41;;;;;;;2.65;1.10;;;11.80;60.60;;;;;;20717194;28;20065;-81
2022/01/05 11:02:41;;;;;;;5.00;1.45;;;11.80;60.60;;;;;;20700506;28;20089;-84
2022/01/05 11:13:07;;;;;;;5.32;1.30;;;11.80;60.60;;;;;;20617351;28;20062;-79
2022/01/05 11:23:08;;;;;;;2.83;1.15;;;12.30;59.70;;;;;;20568348;28;20034;-83
2022/01/05 11:33:08;;;;;;;3.73;1.33;;;13.10;57.90;;;;;;20948795;23;20049;-77
2022/01/05 11:43:12;;;;;;;4.72;1.40;;;13.80;56.00;;;;;;20637177;28;20344;-84
2022/01/05 11:53:15;;;;;;;1.95;1.10;;;14.30;54.50;;;;;;20623378;28;20034;-76
2022/01/05 12:03:52;;;;;;;8.07;1.48;;;14.70;53.30;;;;;;20642957;28;20042;-76
2022/01/05 12:13:52;;;;;;;4.45;1.33;;;14.70;52.20;;;;;;20661994;28;20392;-77
2022/01/05 12:23:53;;;;;;;3.40;1.38;;;14.80;51.80;;;;;;20612689;28;20045;-76
2022/01/05 12:33:53;;;;;;;1.08;0.60;;;14.80;51.60;;;;;;20599578;28;20045;-77
2022/01/05 12:43:55;;;;;;;2.47;0.65;;;14.40;52.40;;;;;;20640407;28;20041;-78
2022/01/05 12:54:06;;;;;;;1.23;0.80;;;13.80;53.50;;;;;;20675817;28;20060;-76
2022/01/05 13:04:11;;;;;;;3.08;0.77;;;13.30;54.80;;;;;;20652649;28;20105;-77
2022/01/05 13:14:26;;;;;;;2.25;0.77;;;13.00;55.80;;;;;;20701410;28;20601;-76
2022/01/05 13:24:47;;;;;;;1.67;0.75;;;12.70;56.80;;;;;;20700556;28;20045;-80
2022/01/05 13:35:06;;;;;;;2.65;0.77;;;12.40;57.50;;;;;;20640032;28;20448;-77
2022/01/05 13:45:10;;;;;;;2.08;1.13;;;12.30;58.10;;;;;;20641828;28;20041;-79
2022/01/05 13:55:39;;;;;;;2.22;0.95;;;12.20;58.50;;;;;;20656243;28;20546;-77
2022/01/05 14:05:43;;;;;;;1.35;0.70;;;12.20;59.00;;;;;;20639036;28;20053;-77
2022/01/05 14:15:46;;;;;;;1.50;0.70;;;12.30;59.20;;;;;;20635129;28;20030;-77
2022/01/05 14:25:49;;;;;;;2.67;0.50;;;12.30;59.20;;;;;;20633603;28;20045;-76
2022/01/05 14:35:49;;;;;;;1.08;0.70;;;12.30;59.20;;;;;;20640054;28;20357;-75
2022/01/05 14:45:50;;;;;;;4.75;0.47;;;12.30;59.40;;;;;;20617680;28;20034;-75
2022/01/05 14:55:51;;;;;;;0.90;0.50;;;12.20;59.60;;;;;;20598293;28;20064;-74
2022/01/05 15:05:52;;;;;;;5.30;0.50;;;12.20;59.80;;;;;;20630930;28;20109;-74
2022/01/05 15:15:53;;;;;;;1.15;0.50;;;12.10;60.00;;;;;;20615998;28;20293;-74
2022/01/05 15:25:54;;;;;;;1.95;0.93;;;12.10;60.10;;;;;;20677632;28;20046;-74
2022/01/05 15:35:54;;;;;;;2.45;0.50;;;12.00;60.40;;;;;;20724568;28;20438;-74
2022/01/05 15:45:56;;;;;;;4.45;1.20;;;12.10;60.40;;;;;;20709026;28;20042;-75
2022/01/05 16:06:14;;;;;;;2.80;0.70;;;13.60;57.70;;;;;;20656917;28;20061;-74
2022/01/05 16:16:16;;;;;;;3.17;0.82;;;14.30;56.30;;;;;;20621466;28;20039;-77
2022/01/05 16:26:18;;;;;;;2.58;1.10;;;14.70;54.80;;;;;;20597378;28;20050;-77
2022/01/05 16:36:19;;;;;;;5.05;0.98;;;15.00;54.00;;;;;;20610220;28;20133;-75
2022/01/05 16:46:21;;;;;;;4.63;2.60;;;14.80;53.70;;;;;;20621973;28;20066;-75
2022/01/05 16:56:40;;;;;;;7.57;2.85;;;14.70;53.90;;;;;;20619205;28;20289;-77
2022/01/05 17:06:40;;;;;;;5.60;2.53;;;14.20;54.70;;;;;;20638921;28;20676;-73
2022/01/05 17:16:41;;;;;;;7.43;1.73;;;13.60;56.00;;;;;;20622404;28;20177;-73
2022/01/05 17:26:42;;;;;;;5.77;1.47;;;13.10;57.70;;;;;;20653483;28;20166;-75
2022/01/05 17:36:42;;;;;;;5.10;1.50;;;12.70;58.00;;;;;;20620350;28;20274;-78
2022/01/05 17:46:45;;;;;;;3.88;1.23;;;12.50;58.90;;;;;;20558453;28;20062;-84
2022/01/05 17:56:46;;;;;;;6.63;1.83;;;12.20;59.70;;;;;;20577971;28;20039;-80
2022/01/05 18:06:50;;;;;;;5.07;1.42;;;12.10;60.20;;;;;;20559539;28;20119;-79
2022/01/05 18:16:54;;;;;;;5.18;2.33;;;12.00;60.60;;;;;;20659265;28;20039;-79
2022/01/05 18:26:55;;;;;;;8.52;1.63;;;12.00;60.80;;;;;;20623006;28;20093;-79
2022/01/05 18:36:59;;;;;;;6.95;1.55;;;12.00;60.90;;;;;;20651067;28;20137;-78
2022/01/05 18:47:03;;;;;;;7.30;1.30;;;12.00;60.90;;;;;;20635360;28;20065;-79
2022/01/05 18:57:04;;;;;;;6.38;1.48;;;12.10;60.80;;;;;;20634697;28;20400;-79
2022/01/05 19:07:04;;;;;;;5.13;1.38;;;12.10;60.80;;;;;;20651271;28;20042;-78
2022/01/05 19:17:06;;;;;;;10.23;1.65;;;12.10;60.70;;;;;;20633407;28;20085;-78
2022/01/05 19:27:08;;;;;;;7.13;1.50;;;12.20;60.70;;;;;;20633954;28;20034;-78
2022/01/05 19:37:09;;;;;;;5.28;1.48;;;12.20;60.60;;;;;;20633772;28;20104;-78
2022/01/05 19:47:10;;;;;;;8.95;1.25;;;12.20;60.50;;;;;;20648004;28;20042;-80
2022/01/05 19:57:10;;;;;;;2.47;1.23;;;12.20;60.40;;;;;;20648746;28;20042;-78
2022/01/05 20:07:13;;;;;;;4.22;0.93;;;12.20;60.30;;;;;;20662660;28;20625;-79
2022/01/05 20:17:13;;;;;;;4.80;1.20;;;12.20;60.20;;;;;;20632448;28;20039;-78
2022/01/05 20:27:14;;;;;;;5.13;1.27;;;12.20;60.20;;;;;;20646043;28;20042;-78
2022/01/05 20:37:16;;;;;;;4.73;1.83;;;12.20;60.10;;;;;;20659110;28;20092;-79
2022/01/05 20:47:17;;;;;;;6.90;1.05;;;12.20;60.10;;;;;;20696922;28;20297;-78
2022/01/05 20:57:20;;;;;;;2.17;0.70;;;12.10;60.00;;;;;;20685081;28;20046;-77
2022/01/05 21:07:20;;;;;;;3.15;0.70;;;12.10;59.90;;;;;;20659258;28;20034;-79
2022/01/05 21:17:22;;;;;;;2.38;0.75;;;12.10;59.80;;;;;;20658157;28;20030;-78
2022/01/05 21:27:24;;;;;;;1.77;0.80;;;12.10;59.80;;;;;;20658774;28;20050;-78
2022/01/05 21:37:26;;;;;;;4.00;1.25;;;12.10;59.80;;;;;;20640711;28;20065;-78
2022/01/05 21:47:27;;;;;;;1.70;0.60;;;12.10;59.70;;;;;;20658058;28;20465;-78
2022/01/05 21:57:28;;;;;;;2.33;0.68;;;12.10;59.60;;;;;;20624129;28;20066;-79
2022/01/05 22:07:28;;;;;;;2.03;0.75;;;12.10;59.50;;;;;;20655272;28;20038;-78
2022/01/05 22:17:29;;;;;;;2.75;0.50;;;12.10;59.50;;;;;;20623555;28;20043;-78
2022/01/05 22:27:31;;;;;;;2.50;0.77;;;12.10;59.50;;;;;;20638639;28;20038;-78
2022/01/05 22:37:33;;;;;;;2.08;0.85;;;12.10;59.50;;;;;;20652903;28;20034;-78
2022/01/05 22:47:35;;;;;;;3.80;0.60;;;12.10;59.50;;;;;;20620101;28;20050;-78
2022/01/05 22:57:37;;;;;;;3.60;0.70;;;12.10;59.50;;;;;;20635446;28;20114;-78
2022/01/05 23:07:37;;;;;;;0.60;0.37;;;12.10;59.40;;;;;;20619629;28;20396;-78
2022/01/05 23:17:41;;;;;;;2.60;0.77;;;12.10;59.40;;;;;;20634806;28;20355;-79
2022/01/05 23:27:44;;;;;;;2.47;0.47;;;12.10;59.40;;;;;;20618324;28;20093;-78
2022/01/05 23:37:49;;;;;;;1.00;0.40;;;12.10;59.40;;;;;;20618081;28;20034;-78
2022/01/05 23:47:53;;;;;;;2.67;0.43;;;12.10;59.40;;;;;;20648444;28;20042;-78
2022/01/05 23:57:57;;;;;;;1.27;0.43;;;12.10;59.40;;;;;;20648929;28;20646;-78
